createdAt,value
2019-04-10T00:01:09.645Z,12.80
2019-04-10T00:03:41.713Z,13.20
2019-04-10T00:06:08.790Z,13.60
2019-04-10T00:08:38.629Z,13.77
2019-04-10T00:11:08.186Z,14.30
2019-04-10T00:13:36.750Z,13.90
2019-04-10T00:16:05.626Z,13.87
2019-04-10T00:18:34.158Z,13.90
2019-04-10T00:21:02.948Z,14.03
2019-04-10T00:23:31.553Z,13.33
2019-04-10T00:26:00.126Z,13.70
2019-04-10T00:28:29.592Z,14.20
2019-04-10T00:30:58.141Z,14.17
2019-04-10T00:33:27.087Z,13.60
2019-04-10T00:35:56.795Z,14.33
2019-04-10T00:38:26.098Z,14.57
2019-04-10T00:40:55.446Z,13.77
2019-04-10T00:43:24.636Z,14.63
2019-04-10T00:45:53.604Z,13.40
2019-04-10T00:48:22.379Z,14.40
2019-04-10T00:50:51.015Z,14.40
2019-04-10T00:53:19.494Z,14.20
2019-04-10T00:55:48.195Z,13.90
2019-04-10T00:58:16.673Z,14.70
2019-04-10T01:00:45.452Z,14.43
2019-04-10T01:03:16.244Z,14.27
2019-04-10T01:05:44.687Z,13.87
2019-04-10T01:08:13.521Z,14.20
2019-04-10T01:10:42.204Z,14.67
2019-04-10T01:13:10.751Z,14.57
2019-04-10T01:15:39.264Z,14.93
2019-04-10T01:18:07.768Z,14.50
2019-04-10T01:20:36.198Z,14.20
2019-04-10T01:23:05.767Z,13.70
2019-04-10T01:25:34.649Z,14.97
2019-04-10T01:28:04.658Z,14.40
2019-04-10T01:30:33.350Z,13.93
2019-04-10T01:33:01.801Z,15.07
2019-04-10T01:35:30.262Z,14.03
2019-04-10T01:38:01.405Z,14.10
2019-04-10T01:40:28.979Z,14.20
2019-04-10T01:43:09.282Z,14.77
2019-04-10T01:45:27.703Z,14.83
2019-04-10T01:47:56.154Z,14.47
2019-04-10T01:50:24.628Z,14.93
2019-04-10T01:52:53.435Z,15.03
2019-04-10T01:55:25.677Z,14.93
2019-04-10T01:57:52.877Z,15.10
2019-04-10T02:00:23.669Z,14.50
2019-04-10T02:02:53.966Z,15.17
2019-04-10T02:05:22.776Z,14.30
2019-04-10T02:08:02.179Z,15.00
2019-04-10T02:10:21.888Z,15.40
2019-04-10T02:12:50.909Z,14.73
2019-04-10T02:15:19.798Z,15.43
2019-04-10T02:17:48.704Z,15.37
2019-04-10T02:20:18.952Z,14.90
2019-04-10T02:22:47.975Z,15.27
2019-04-10T02:25:17.846Z,15.40
2019-04-10T02:27:46.775Z,16.20
2019-04-10T02:30:17.508Z,16.10
2019-04-10T02:32:48.236Z,16.10
2019-04-10T02:35:17.669Z,15.40
2019-04-10T02:37:49.535Z,14.87
2019-04-10T02:40:16.998Z,15.17
2019-04-10T02:42:47.340Z,16.10
2019-04-10T02:45:17.106Z,15.60
2019-04-10T02:47:47.428Z,15.60
2019-04-10T02:50:16.558Z,15.20
2019-04-10T02:52:45.941Z,15.97
2019-04-10T02:55:16.822Z,15.70
2019-04-10T02:57:45.907Z,15.73
2019-04-10T03:00:15.380Z,16.80
2019-04-10T03:02:45.295Z,15.77
2019-04-10T03:05:15.871Z,14.83
2019-04-10T03:07:44.484Z,15.10
2019-04-10T03:10:24.596Z,17.17
2019-04-10T03:12:44.297Z,16.70
2019-04-10T03:15:15.043Z,16.00
2019-04-10T03:17:44.069Z,18.90
2019-04-10T03:20:12.759Z,16.50
2019-04-10T03:22:41.137Z,15.70
2019-04-10T03:25:10.928Z,15.80
2019-04-10T03:27:40.583Z,16.57
2019-04-10T03:30:12.593Z,16.07
2019-04-10T03:32:47.693Z,16.60
2019-04-10T03:35:22.876Z,15.67
2019-04-10T03:37:52.963Z,15.90
2019-04-10T03:40:21.742Z,17.40
2019-04-10T03:42:50.538Z,15.90
2019-04-10T03:45:20.284Z,17.23
2019-04-10T03:47:49.429Z,16.80
2019-04-10T03:50:18.456Z,16.23
2019-04-10T03:52:49.709Z,15.77
2019-04-10T03:55:18.941Z,15.60
2019-04-10T03:57:51.949Z,16.93
2019-04-10T04:00:22.381Z,15.67
2019-04-10T04:02:51.844Z,16.53
2019-04-10T04:05:20.454Z,16.37
2019-04-10T04:07:48.938Z,17.70
2019-04-10T04:10:18.286Z,17.40
2019-04-10T04:12:46.986Z,17.77
2019-04-10T04:15:15.731Z,17.47
2019-04-10T04:17:44.454Z,17.67
2019-04-10T04:20:12.915Z,16.93
2019-04-10T04:22:41.381Z,18.17
2019-04-10T04:25:10.776Z,18.20
2019-04-10T04:27:39.853Z,16.73
2019-04-10T04:30:08.905Z,17.57
2019-04-10T04:32:38.008Z,17.60
2019-04-10T04:35:07.053Z,17.40
2019-04-10T04:37:35.851Z,17.03
2019-04-10T04:40:05.833Z,17.80
2019-04-10T04:42:35.163Z,18.17
2019-04-10T04:45:05.071Z,16.53
2019-04-10T04:47:34.312Z,18.23
2019-04-10T04:50:03.564Z,16.83
2019-04-10T04:52:32.757Z,16.00
2019-04-10T04:55:01.949Z,17.93
2019-04-10T04:57:31.217Z,16.60
2019-04-10T05:00:01.239Z,17.10
2019-04-10T05:02:30.314Z,17.00
2019-04-10T05:04:58.833Z,17.70
2019-04-10T05:07:27.559Z,17.73
2019-04-10T05:09:58.688Z,16.97
2019-04-10T05:12:27.607Z,15.93
2019-04-10T05:14:56.131Z,16.47
2019-04-10T05:17:24.739Z,16.53
2019-04-10T05:19:54.497Z,15.70
2019-04-10T05:22:23.178Z,16.73
2019-04-10T05:24:52.357Z,16.73
2019-04-10T05:27:21.029Z,16.00
2019-04-10T05:29:50.563Z,17.70
2019-04-10T05:32:19.021Z,15.73
2019-04-10T05:34:47.559Z,16.00
2019-04-10T05:37:16.065Z,16.80
2019-04-10T05:39:49.142Z,16.30
2019-04-10T05:42:14.798Z,16.23
2019-04-10T05:44:44.565Z,16.20
2019-04-10T05:47:13.711Z,15.83
2019-04-10T05:49:43.121Z,16.30
2019-04-10T05:52:12.664Z,15.40
2019-04-10T05:54:43.751Z,15.83
2019-04-10T05:57:12.598Z,17.13
2019-04-10T05:59:41.497Z,33.83
2019-04-10T06:02:09.902Z,16.67
2019-04-10T06:04:38.315Z,16.33
2019-04-10T06:07:06.780Z,16.30
2019-04-10T06:09:36.549Z,15.30
2019-04-10T06:12:05.766Z,16.77
2019-04-10T06:14:35.310Z,15.73
2019-04-10T06:17:04.376Z,15.43
2019-04-10T06:19:34.344Z,16.90
2019-04-10T06:22:03.261Z,16.80
2019-04-10T06:24:32.193Z,16.73
2019-04-10T06:27:01.766Z,15.67
2019-04-10T06:29:30.896Z,14.93
2019-04-10T06:31:59.514Z,15.60
2019-04-10T06:34:28.014Z,15.60
2019-04-10T06:36:57.638Z,19.00
2019-04-10T06:39:26.921Z,17.17
2019-04-10T06:41:56.138Z,16.70
2019-04-10T06:44:25.839Z,17.00
2019-04-10T06:46:55.184Z,16.17
2019-04-10T06:49:24.797Z,15.70
2019-04-10T06:51:53.613Z,15.77
2019-04-10T06:54:22.785Z,15.70
2019-04-10T06:56:52.420Z,14.83
2019-04-10T06:59:21.327Z,16.23
2019-04-10T07:01:53.383Z,15.80
2019-04-10T07:04:24.443Z,15.90
2019-04-10T07:06:59.738Z,15.63
2019-04-10T07:09:25.430Z,14.97
2019-04-10T07:11:58.517Z,13.90
2019-04-10T07:14:24.606Z,14.57
2019-04-10T07:16:54.776Z,14.70
2019-04-10T07:19:24.108Z,15.03
2019-04-10T07:21:53.471Z,15.80
2019-04-10T07:24:25.059Z,14.73
2019-04-10T07:26:53.695Z,14.53
2019-04-10T07:29:26.627Z,17.50
2019-04-10T07:31:52.952Z,16.60
2019-04-10T07:34:25.553Z,15.40
2019-04-10T07:36:52.041Z,16.30
2019-04-10T07:39:21.515Z,15.43
2019-04-10T07:41:50.200Z,17.07
2019-04-10T07:44:19.091Z,16.10
2019-04-10T07:46:48.747Z,15.17
2019-04-10T07:49:19.331Z,15.33
2019-04-10T07:51:50.181Z,15.20
2019-04-10T07:54:21.257Z,15.83
2019-04-10T07:56:49.493Z,14.50
2019-04-10T07:59:18.548Z,15.37
2019-04-10T08:01:47.419Z,14.60
2019-04-10T08:04:16.096Z,14.13
2019-04-10T08:06:44.741Z,14.17
2019-04-10T08:09:13.254Z,15.20
2019-04-10T08:11:42.518Z,14.73
2019-04-10T08:14:11.084Z,14.67
2019-04-10T08:16:39.566Z,14.10
2019-04-10T08:19:08.306Z,13.50
2019-04-10T08:21:38.026Z,13.80
2019-04-10T08:24:07.368Z,14.00
2019-04-10T08:26:36.739Z,13.90
2019-04-10T08:29:05.732Z,13.90
2019-04-10T08:31:34.331Z,13.20
2019-04-10T08:34:03.304Z,13.23
2019-04-10T08:36:32.287Z,13.77
2019-04-10T08:39:01.176Z,14.13
2019-04-10T08:41:29.775Z,13.70
2019-04-10T08:43:58.877Z,15.27
2019-04-10T08:46:28.131Z,13.20
2019-04-10T08:48:58.013Z,14.10
2019-04-10T08:51:27.707Z,13.17
2019-04-10T08:53:58.608Z,14.40
2019-04-10T08:56:28.022Z,14.37
2019-04-10T08:58:57.238Z,13.60
2019-04-10T09:01:26.100Z,14.90
2019-04-10T09:03:55.239Z,13.43
2019-04-10T09:06:23.899Z,13.70
2019-04-10T09:08:53.074Z,13.60
2019-04-10T09:11:26.494Z,14.37
2019-04-10T09:14:16.998Z,14.60
2019-04-10T09:16:44.821Z,13.43
2019-04-10T09:19:16.128Z,13.50
2019-04-10T09:21:45.748Z,13.83
2019-04-10T09:24:15.312Z,13.80
2019-04-10T09:26:46.806Z,13.40
2019-04-10T09:29:16.084Z,13.53
2019-04-10T09:31:46.036Z,14.47
2019-04-10T09:34:18.263Z,13.33
2019-04-10T09:36:46.723Z,14.00
2019-04-10T09:39:19.068Z,14.00
2019-04-10T09:41:47.706Z,12.43
2019-04-10T09:44:16.268Z,16.00
2019-04-10T09:46:45.111Z,13.13
2019-04-10T09:49:14.388Z,13.73
2019-04-10T09:51:42.868Z,14.33
2019-04-10T09:54:11.261Z,15.43
2019-04-10T09:56:39.672Z,13.90
2019-04-10T09:59:08.200Z,13.10
2019-04-10T10:01:37.862Z,14.60
2019-04-10T10:04:06.928Z,14.47
2019-04-10T10:06:37.795Z,14.57
2019-04-10T10:09:08.375Z,14.00
2019-04-10T10:11:37.171Z,13.80
2019-04-10T10:14:06.165Z,13.63
2019-04-10T10:16:35.782Z,13.77
2019-04-10T10:19:05.699Z,14.30
2019-04-10T10:21:34.637Z,15.60
2019-04-10T10:24:04.501Z,15.00
2019-04-10T10:26:34.309Z,14.20
2019-04-10T10:29:03.039Z,14.33
2019-04-10T10:31:32.490Z,13.77
2019-04-10T10:34:01.905Z,13.77
2019-04-10T10:36:40.787Z,14.43
2019-04-10T10:39:06.914Z,14.67
2019-04-10T10:41:31.963Z,14.60
2019-04-10T10:44:00.630Z,13.53
2019-04-10T10:46:29.338Z,13.70
2019-04-10T10:48:57.973Z,14.33
2019-04-10T10:51:26.777Z,14.17
2019-04-10T10:53:56.599Z,13.50
2019-04-10T10:56:25.181Z,14.90
2019-04-10T10:58:55.328Z,14.73
2019-04-10T11:01:24.139Z,14.43
2019-04-10T11:03:52.611Z,13.70
2019-04-10T11:06:21.112Z,14.63
2019-04-10T11:08:49.495Z,14.67
2019-04-10T11:11:17.972Z,14.70
2019-04-10T11:13:46.948Z,14.00
2019-04-10T11:16:16.833Z,14.77
2019-04-10T11:18:46.837Z,15.10
2019-04-10T11:21:16.833Z,15.37
2019-04-10T11:23:46.613Z,13.83
2019-04-10T11:26:20.031Z,14.60
2019-04-10T11:28:45.659Z,15.03
2019-04-10T11:31:15.804Z,15.47
2019-04-10T11:33:49.824Z,18.43
2019-04-10T11:36:15.130Z,14.90
2019-04-10T11:38:45.361Z,14.17
2019-04-10T11:41:15.001Z,14.27
2019-04-10T11:43:44.619Z,13.27
2019-04-10T11:46:13.777Z,13.93
2019-04-10T11:48:45.541Z,13.70
2019-04-10T11:51:14.146Z,14.73
2019-04-10T11:53:47.215Z,14.80
2019-04-10T11:56:13.099Z,14.00
2019-04-10T11:58:50.690Z,14.47
2019-04-10T12:01:13.031Z,13.63
2019-04-10T12:03:48.248Z,14.00
2019-04-10T12:06:13.659Z,14.37
2019-04-10T12:09:03.823Z,13.30
2019-04-10T12:11:15.531Z,15.43
2019-04-10T12:13:42.777Z,14.30
2019-04-10T12:16:11.340Z,14.97
2019-04-10T12:18:40.558Z,15.40
2019-04-10T12:21:09.419Z,14.47
2019-04-10T12:23:37.905Z,13.73
2019-04-10T12:26:07.447Z,13.33
2019-04-10T12:28:36.181Z,13.97
2019-04-10T12:31:05.906Z,13.07
2019-04-10T12:33:35.817Z,14.07
2019-04-10T12:36:06.594Z,13.43
2019-04-10T12:38:35.999Z,14.47
2019-04-10T12:41:04.730Z,13.20
2019-04-10T12:43:33.166Z,13.80
2019-04-10T12:46:02.388Z,13.43
2019-04-10T12:48:30.920Z,13.20
2019-04-10T12:50:59.373Z,12.67
2019-04-10T12:53:27.823Z,14.33
2019-04-10T12:55:56.255Z,14.43
2019-04-10T12:58:25.101Z,14.30
2019-04-10T13:00:53.507Z,14.50
2019-04-10T13:03:23.691Z,13.60
2019-04-10T13:05:52.085Z,13.13
2019-04-10T13:08:25.637Z,13.67
2019-04-10T13:10:51.909Z,13.47
2019-04-10T13:13:20.678Z,13.63
2019-04-10T13:15:49.771Z,13.53
2019-04-10T13:18:18.903Z,14.23
2019-04-10T13:20:48.339Z,14.50
2019-04-10T13:23:17.821Z,14.40
2019-04-10T13:25:56.425Z,13.50
2019-04-10T13:28:17.015Z,13.80
2019-04-10T13:30:51.257Z,13.77
2019-04-10T13:33:16.270Z,13.80
2019-04-10T13:35:44.781Z,13.73
2019-04-10T13:38:23.119Z,14.03
2019-04-10T13:40:43.775Z,13.37
2019-04-10T13:43:12.324Z,12.90
2019-04-10T13:45:41.607Z,13.17
2019-04-10T13:48:10.528Z,13.80
2019-04-10T13:50:39.058Z,13.77
2019-04-10T13:53:07.945Z,13.80
2019-04-10T13:55:36.754Z,13.93
2019-04-10T13:58:05.326Z,12.73
2019-04-10T14:00:38.414Z,12.90
2019-04-10T14:03:06.218Z,12.30
2019-04-10T14:05:34.893Z,12.80
2019-04-10T14:08:03.413Z,13.30
2019-04-10T14:10:31.865Z,12.87
2019-04-10T14:13:00.502Z,13.07
2019-04-10T14:15:30.338Z,13.40
2019-04-10T14:17:59.821Z,13.20
2019-04-10T14:20:29.030Z,13.17
2019-04-10T14:23:02.229Z,13.10
2019-04-10T14:25:32.417Z,13.30
2019-04-10T14:28:00.997Z,12.30
2019-04-10T14:30:31.415Z,13.00
2019-04-10T14:33:00.863Z,12.77
2019-04-10T14:35:29.533Z,13.60
2019-04-10T14:38:01.026Z,13.30
2019-04-10T14:40:30.493Z,13.90
2019-04-10T14:42:59.720Z,12.40
2019-04-10T14:45:28.364Z,13.63
2019-04-10T14:47:58.187Z,13.87
2019-04-10T14:50:26.776Z,13.13
2019-04-10T14:52:55.323Z,13.13
2019-04-10T14:55:24.927Z,12.97
2019-04-10T14:57:54.915Z,12.60
2019-04-10T15:00:25.155Z,14.20
2019-04-10T15:02:54.118Z,14.03
2019-04-10T15:05:23.758Z,13.90
2019-04-10T15:07:55.276Z,13.77
2019-04-10T15:10:29.905Z,12.97
2019-04-10T15:13:07.469Z,13.00
2019-04-10T15:15:28.609Z,12.90
2019-04-10T15:17:58.141Z,13.40
2019-04-10T15:20:26.661Z,13.17
2019-04-10T15:22:55.199Z,12.53
2019-04-10T15:25:24.824Z,12.90
2019-04-10T15:27:53.704Z,13.40
2019-04-10T15:30:22.356Z,12.47
2019-04-10T15:32:50.839Z,13.60
2019-04-10T15:35:20.093Z,13.50
2019-04-10T15:37:49.315Z,13.10
2019-04-10T15:40:25.494Z,12.43
2019-04-10T15:42:52.562Z,13.20
2019-04-10T15:45:21.764Z,12.53
2019-04-10T15:47:54.171Z,13.10
2019-04-10T15:50:20.575Z,13.10
2019-04-10T15:52:49.020Z,13.10
2019-04-10T15:55:21.641Z,12.43
2019-04-10T15:57:55.256Z,13.10
2019-04-10T16:00:21.241Z,12.27
2019-04-10T16:02:51.022Z,12.37
2019-04-10T16:05:19.763Z,12.23
2019-04-10T16:07:48.962Z,11.97
2019-04-10T16:10:28.897Z,12.37
2019-04-10T16:13:02.203Z,12.90
2019-04-10T16:15:32.238Z,12.60
2019-04-10T16:18:11.491Z,12.20
2019-04-10T16:20:41.060Z,11.93
2019-04-10T16:23:14.297Z,12.47
2019-04-10T16:25:52.398Z,23.80
2019-04-10T16:28:21.149Z,17.23
2019-04-10T16:30:50.758Z,12.70
2019-04-10T16:33:19.392Z,12.40
2019-04-10T16:35:48.281Z,12.60
2019-04-10T16:38:16.856Z,12.40
2019-04-10T16:40:45.920Z,12.27
2019-04-10T16:43:15.909Z,11.70
2019-04-10T16:45:44.732Z,12.17
2019-04-10T16:48:13.252Z,11.30
2019-04-10T16:50:43.568Z,11.43
2019-04-10T16:53:14.326Z,12.03
2019-04-10T16:55:43.111Z,12.30
2019-04-10T16:58:13.966Z,12.67
2019-04-10T17:00:42.515Z,12.60
2019-04-10T17:03:11.606Z,13.57
2019-04-10T17:05:40.440Z,12.93
2019-04-10T17:08:09.779Z,12.57
2019-04-10T17:10:40.743Z,12.10
2019-04-10T17:13:09.325Z,11.90
2019-04-10T17:15:39.863Z,12.73
2019-04-10T17:18:08.770Z,12.23
2019-04-10T17:20:38.338Z,12.00
2019-04-10T17:23:08.115Z,11.70
2019-04-10T17:25:42.241Z,11.60
2019-04-10T17:28:12.313Z,12.07
2019-04-10T17:30:42.235Z,14.00
2019-04-10T17:33:11.150Z,12.53
2019-04-10T17:35:40.097Z,12.60
2019-04-10T17:38:10.153Z,12.50
2019-04-10T17:40:46.337Z,13.13
2019-04-10T17:43:08.919Z,12.40
2019-04-10T17:45:38.607Z,12.50
2019-04-10T17:48:07.273Z,12.40
2019-04-10T17:50:37.436Z,12.10
2019-04-10T17:53:07.139Z,12.47
2019-04-10T17:55:36.194Z,12.23
2019-04-10T17:58:05.375Z,11.77
2019-04-10T18:00:35.646Z,12.60
2019-04-10T18:03:05.324Z,12.40
2019-04-10T18:05:34.974Z,12.30
2019-04-10T18:08:03.585Z,12.47
2019-04-10T18:10:43.472Z,15.07
2019-04-10T18:13:03.038Z,12.53
2019-04-10T18:15:32.425Z,12.80
2019-04-10T18:18:03.261Z,12.17
2019-04-10T18:20:32.123Z,11.47
2019-04-10T18:23:01.016Z,11.83
2019-04-10T18:25:29.806Z,11.83
2019-04-10T18:27:58.528Z,12.00
2019-04-10T18:30:28.177Z,11.97
2019-04-10T18:32:58.135Z,12.30
2019-04-10T18:35:26.896Z,12.23
2019-04-10T18:37:55.587Z,12.30
2019-04-10T18:40:25.293Z,12.70
2019-04-10T18:42:56.142Z,12.00
2019-04-10T18:45:24.550Z,11.73
2019-04-10T18:47:54.085Z,13.10
2019-04-10T18:50:24.485Z,13.60
2019-04-10T18:52:53.912Z,12.20
2019-04-10T18:55:22.813Z,11.10
2019-04-10T18:57:51.488Z,12.57
2019-04-10T19:00:38.724Z,12.20
2019-04-10T19:03:25.572Z,11.90
2019-04-10T19:05:56.344Z,12.80
2019-04-10T19:08:26.027Z,12.60
2019-04-10T19:11:08.398Z,12.20
2019-04-10T19:13:26.617Z,12.10
2019-04-10T19:15:55.445Z,12.00
2019-04-10T19:18:24.065Z,13.40
2019-04-10T19:20:53.187Z,12.50
2019-04-10T19:23:22.736Z,12.20
2019-04-10T19:25:52.311Z,12.40
2019-04-10T19:28:32.258Z,12.50
2019-04-10T19:31:08.072Z,12.50
2019-04-10T19:33:26.365Z,12.40
2019-04-10T19:35:55.226Z,12.40
2019-04-10T19:38:23.645Z,15.27
2019-04-10T19:40:52.235Z,17.93
2019-04-10T19:43:22.074Z,12.63
2019-04-10T19:45:50.544Z,12.60
2019-04-10T19:48:19.403Z,19.50
2019-04-10T19:50:52.260Z,12.53
2019-04-10T19:53:24.803Z,12.30
2019-04-10T19:55:53.867Z,13.40
2019-04-10T19:58:22.523Z,12.80
2019-04-10T20:00:51.092Z,11.93
2019-04-10T20:03:19.730Z,11.67
2019-04-10T20:05:49.345Z,12.23
2019-04-10T20:08:18.068Z,12.90
2019-04-10T20:10:47.650Z,12.17
2019-04-10T20:13:16.615Z,12.43
2019-04-10T20:15:45.261Z,11.50
2019-04-10T20:18:14.685Z,12.70
2019-04-10T20:20:43.683Z,12.07
2019-04-10T20:23:13.922Z,12.87
2019-04-10T20:25:42.938Z,11.47
2019-04-10T20:28:12.276Z,12.10
2019-04-10T20:30:40.900Z,11.97
2019-04-10T20:33:10.421Z,12.53
2019-04-10T20:35:38.978Z,12.73
2019-04-10T20:38:21.581Z,12.00
2019-04-10T20:40:49.837Z,12.00
2019-04-10T20:43:18.598Z,11.07
2019-04-10T20:45:53.815Z,11.37
2019-04-10T20:48:22.714Z,11.47
2019-04-10T20:50:52.301Z,11.40
2019-04-10T20:53:22.105Z,11.07
2019-04-10T20:55:51.356Z,12.00
2019-04-10T20:58:21.993Z,11.80
2019-04-10T21:00:51.422Z,11.40
2019-04-10T21:03:19.943Z,11.40
2019-04-10T21:05:48.631Z,11.40
2019-04-10T21:08:17.973Z,11.20
2019-04-10T21:10:49.457Z,11.93
2019-04-10T21:13:17.799Z,11.27
2019-04-10T21:15:46.352Z,10.73
2019-04-10T21:18:15.323Z,11.40
2019-04-10T21:20:45.218Z,11.63
2019-04-10T21:23:13.730Z,11.10
2019-04-10T21:25:42.241Z,12.27
2019-04-10T21:28:11.660Z,12.53
2019-04-10T21:30:46.474Z,11.60
2019-04-10T21:33:20.422Z,11.10
2019-04-10T21:35:49.740Z,11.23
2019-04-10T21:38:19.307Z,11.43
2019-04-10T21:40:48.029Z,10.70
2019-04-10T21:43:16.586Z,11.10
2019-04-10T21:45:45.587Z,10.93
2019-04-10T21:48:14.664Z,11.10
2019-04-10T21:50:43.971Z,11.67
2019-04-10T21:53:12.544Z,11.43
2019-04-10T21:55:41.716Z,10.60
2019-04-10T21:58:10.357Z,11.37
2019-04-10T22:00:57.243Z,11.33
2019-04-10T22:03:27.558Z,11.50
2019-04-10T22:05:58.141Z,11.90
2019-04-10T22:08:33.656Z,11.73
2019-04-10T22:11:04.338Z,11.27
2019-04-10T22:13:33.177Z,11.50
2019-04-10T22:16:06.012Z,11.70
2019-04-10T22:18:34.660Z,11.30
2019-04-10T22:21:16.975Z,11.73
2019-04-10T22:23:51.067Z,11.77
2019-04-10T22:26:22.247Z,12.50
2019-04-10T22:28:50.800Z,11.57
2019-04-10T22:31:27.861Z,11.57
2019-04-10T22:33:56.774Z,12.07
2019-04-10T22:36:25.978Z,14.53
2019-04-10T22:38:54.497Z,19.80
2019-04-10T22:41:30.277Z,13.20
2019-04-10T22:43:54.894Z,13.23
2019-04-10T22:46:23.818Z,12.77
2019-04-10T22:48:53.453Z,11.83
2019-04-10T22:51:22.387Z,12.27
2019-04-10T22:53:53.672Z,11.07
2019-04-10T22:56:23.181Z,11.53
2019-04-10T22:58:51.816Z,12.13
2019-04-10T23:01:20.728Z,12.07
2019-04-10T23:03:49.486Z,12.00
2019-04-10T23:06:18.254Z,11.80
2019-04-10T23:08:47.484Z,11.60
2019-04-10T23:11:17.140Z,12.30
2019-04-10T23:13:47.979Z,11.60
2019-04-10T23:16:17.483Z,11.90
2019-04-10T23:18:46.064Z,11.40
2019-04-10T23:21:14.560Z,11.37
2019-04-10T23:23:43.324Z,12.07
2019-04-10T23:26:13.119Z,11.50
2019-04-10T23:28:42.122Z,11.57
2019-04-10T23:31:10.753Z,11.47
2019-04-10T23:33:39.916Z,12.00
2019-04-10T23:36:09.697Z,12.07
2019-04-10T23:38:39.597Z,11.63
2019-04-10T23:41:09.390Z,12.07
2019-04-10T23:43:37.943Z,11.70
2019-04-10T23:46:06.351Z,10.70
2019-04-10T23:48:34.998Z,11.73
2019-04-10T23:51:04.859Z,15.03
2019-04-10T23:53:33.563Z,12.90
2019-04-10T23:56:02.209Z,11.03
2019-04-10T23:58:31.799Z,12.50
